sensor_id;sensor_type;location;lat;lon;timestamp;P1;durP1;ratioP1;P2;durP2;ratioP2
21519;SDS011;10921;53.614;9.882;2024-02-26T00:00:23;41.03;;;34.30;;
21519;SDS011;10921;53.614;9.882;2024-02-26T00:02:50;35.92;;;32.55;;
21519;SDS011;10921;53.614;9.882;2024-02-26T00:05:17;37.72;;;33.65;;
21519;SDS011;10921;53.614;9.882;2024-02-26T00:07:43;37.65;;;33.90;;
21519;SDS011;10921;53.614;9.882;2024-02-26T00:10:11;33.63;;;30.55;;
21519;SDS011;10921;53.614;9.882;2024-02-26T00:12:37;35.28;;;31.75;;
21519;SDS011;10921;53.614;9.882;2024-02-26T00:15:08;36.15;;;32.25;;
21519;SDS011;10921;53.614;9.882;2024-02-26T00:17:35;36.97;;;33.40;;
21519;SDS011;10921;53.614;9.882;2024-02-26T00:20:02;36.47;;;32.80;;
21519;SDS011;10921;53.614;9.882;2024-02-26T00:22:36;37.53;;;33.83;;
21519;SDS011;10921;53.614;9.882;2024-02-26T00:25:03;37.17;;;33.58;;
21519;SDS011;10921;53.614;9.882;2024-02-26T00:27:30;38.78;;;34.55;;
21519;SDS011;10921;53.614;9.882;2024-02-26T00:29:57;36.85;;;33.10;;
21519;SDS011;10921;53.614;9.882;2024-02-26T00:32:24;38.67;;;34.55;;
21519;SDS011;10921;53.614;9.882;2024-02-26T00:34:50;36.75;;;33.25;;
21519;SDS011;10921;53.614;9.882;2024-02-26T00:37:17;38.67;;;34.95;;
21519;SDS011;10921;53.614;9.882;2024-02-26T00:39:43;43.90;;;37.50;;
21519;SDS011;10921;53.614;9.882;2024-02-26T00:42:10;41.30;;;36.33;;
21519;SDS011;10921;53.614;9.882;2024-02-26T00:44:37;37.85;;;33.95;;
21519;SDS011;10921;53.614;9.882;2024-02-26T00:47:04;37.78;;;34.05;;
21519;SDS011;10921;53.614;9.882;2024-02-26T00:49:30;36.63;;;32.67;;
21519;SDS011;10921;53.614;9.882;2024-02-26T00:51:57;35.78;;;32.20;;
21519;SDS011;10921;53.614;9.882;2024-02-26T00:54:24;37.38;;;33.42;;
21519;SDS011;10921;53.614;9.882;2024-02-26T00:56:50;37.03;;;33.08;;
21519;SDS011;10921;53.614;9.882;2024-02-26T00:59:17;38.72;;;34.72;;
21519;SDS011;10921;53.614;9.882;2024-02-26T01:01:43;41.53;;;36.25;;
21519;SDS011;10921;53.614;9.882;2024-02-26T01:04:10;40.65;;;36.53;;
21519;SDS011;10921;53.614;9.882;2024-02-26T01:06:38;38.70;;;35.08;;
21519;SDS011;10921;53.614;9.882;2024-02-26T01:09:04;39.53;;;35.40;;
21519;SDS011;10921;53.614;9.882;2024-02-26T01:11:32;38.80;;;34.83;;
21519;SDS011;10921;53.614;9.882;2024-02-26T01:13:58;38.53;;;34.63;;
21519;SDS011;10921;53.614;9.882;2024-02-26T01:16:25;39.75;;;35.70;;
21519;SDS011;10921;53.614;9.882;2024-02-26T01:18:51;39.75;;;35.45;;
21519;SDS011;10921;53.614;9.882;2024-02-26T01:21:18;40.20;;;36.05;;
21519;SDS011;10921;53.614;9.882;2024-02-26T01:23:45;46.83;;;35.03;;
21519;SDS011;10921;53.614;9.882;2024-02-26T01:26:11;40.53;;;36.15;;
21519;SDS011;10921;53.614;9.882;2024-02-26T01:28:38;39.55;;;34.63;;
21519;SDS011;10921;53.614;9.882;2024-02-26T01:31:04;38.25;;;34.45;;
21519;SDS011;10921;53.614;9.882;2024-02-26T01:33:33;40.42;;;36.28;;
21519;SDS011;10921;53.614;9.882;2024-02-26T01:36:00;38.47;;;34.33;;
21519;SDS011;10921;53.614;9.882;2024-02-26T01:38:27;38.83;;;34.85;;
21519;SDS011;10921;53.614;9.882;2024-02-26T01:40:54;37.72;;;33.97;;
21519;SDS011;10921;53.614;9.882;2024-02-26T01:43:20;38.63;;;34.83;;
21519;SDS011;10921;53.614;9.882;2024-02-26T01:45:47;38.50;;;34.58;;
21519;SDS011;10921;53.614;9.882;2024-02-26T01:48:14;38.97;;;34.65;;
21519;SDS011;10921;53.614;9.882;2024-02-26T01:50:40;40.38;;;36.13;;
21519;SDS011;10921;53.614;9.882;2024-02-26T01:53:07;46.13;;;37.53;;
21519;SDS011;10921;53.614;9.882;2024-02-26T01:55:35;37.85;;;33.90;;
21519;SDS011;10921;53.614;9.882;2024-02-26T01:58:02;39.42;;;35.55;;
21519;SDS011;10921;53.614;9.882;2024-02-26T02:00:29;39.90;;;35.88;;
21519;SDS011;10921;53.614;9.882;2024-02-26T02:02:56;40.00;;;35.85;;
21519;SDS011;10921;53.614;9.882;2024-02-26T02:05:22;40.60;;;36.55;;
21519;SDS011;10921;53.614;9.882;2024-02-26T02:07:50;39.88;;;35.97;;
21519;SDS011;10921;53.614;9.882;2024-02-26T02:10:18;39.55;;;35.40;;
21519;SDS011;10921;53.614;9.882;2024-02-26T02:12:49;40.63;;;36.22;;
21519;SDS011;10921;53.614;9.882;2024-02-26T02:15:15;39.67;;;35.58;;
21519;SDS011;10921;53.614;9.882;2024-02-26T02:17:42;38.35;;;34.42;;
21519;SDS011;10921;53.614;9.882;2024-02-26T02:20:15;38.17;;;34.53;;
21519;SDS011;10921;53.614;9.882;2024-02-26T02:22:44;38.55;;;34.95;;
21519;SDS011;10921;53.614;9.882;2024-02-26T02:25:11;38.92;;;35.13;;
21519;SDS011;10921;53.614;9.882;2024-02-26T02:27:39;39.83;;;35.75;;
21519;SDS011;10921;53.614;9.882;2024-02-26T02:30:06;40.38;;;35.85;;
21519;SDS011;10921;53.614;9.882;2024-02-26T02:32:35;44.92;;;37.70;;
21519;SDS011;10921;53.614;9.882;2024-02-26T02:37:31;39.25;;;35.22;;
21519;SDS011;10921;53.614;9.882;2024-02-26T02:39:58;41.40;;;37.00;;
21519;SDS011;10921;53.614;9.882;2024-02-26T02:42:25;41.38;;;36.97;;
21519;SDS011;10921;53.614;9.882;2024-02-26T02:44:52;42.83;;;38.10;;
21519;SDS011;10921;53.614;9.882;2024-02-26T02:47:18;41.17;;;35.92;;
21519;SDS011;10921;53.614;9.882;2024-02-26T02:49:45;41.80;;;36.75;;
21519;SDS011;10921;53.614;9.882;2024-02-26T02:52:11;41.78;;;37.58;;
21519;SDS011;10921;53.614;9.882;2024-02-26T02:54:38;40.38;;;36.10;;
21519;SDS011;10921;53.614;9.882;2024-02-26T02:57:08;41.53;;;37.10;;
21519;SDS011;10921;53.614;9.882;2024-02-26T02:59:35;40.67;;;36.35;;
21519;SDS011;10921;53.614;9.882;2024-02-26T03:02:03;42.35;;;36.83;;
21519;SDS011;10921;53.614;9.882;2024-02-26T03:04:29;43.00;;;38.47;;
21519;SDS011;10921;53.614;9.882;2024-02-26T03:06:56;40.47;;;36.10;;
21519;SDS011;10921;53.614;9.882;2024-02-26T03:09:24;39.55;;;34.72;;
21519;SDS011;10921;53.614;9.882;2024-02-26T03:11:50;40.45;;;36.15;;
21519;SDS011;10921;53.614;9.882;2024-02-26T03:14:17;43.42;;;37.45;;
21519;SDS011;10921;53.614;9.882;2024-02-26T03:16:44;45.78;;;38.20;;
21519;SDS011;10921;53.614;9.882;2024-02-26T03:19:10;41.67;;;37.25;;
21519;SDS011;10921;53.614;9.882;2024-02-26T03:21:37;40.95;;;35.53;;
21519;SDS011;10921;53.614;9.882;2024-02-26T03:24:04;41.40;;;36.70;;
21519;SDS011;10921;53.614;9.882;2024-02-26T03:26:31;42.35;;;37.72;;
21519;SDS011;10921;53.614;9.882;2024-02-26T03:28:57;43.67;;;38.55;;
21519;SDS011;10921;53.614;9.882;2024-02-26T03:31:24;41.13;;;36.72;;
21519;SDS011;10921;53.614;9.882;2024-02-26T03:33:50;44.63;;;35.95;;
21519;SDS011;10921;53.614;9.882;2024-02-26T03:36:17;40.83;;;36.42;;
21519;SDS011;10921;53.614;9.882;2024-02-26T03:38:44;42.47;;;37.75;;
21519;SDS011;10921;53.614;9.882;2024-02-26T03:41:10;44.80;;;38.28;;
21519;SDS011;10921;53.614;9.882;2024-02-26T03:43:37;41.00;;;36.70;;
21519;SDS011;10921;53.614;9.882;2024-02-26T03:46:03;41.15;;;35.83;;
21519;SDS011;10921;53.614;9.882;2024-02-26T03:48:30;43.45;;;37.65;;
21519;SDS011;10921;53.614;9.882;2024-02-26T03:50:56;44.45;;;37.88;;
21519;SDS011;10921;53.614;9.882;2024-02-26T03:53:23;43.40;;;38.70;;
21519;SDS011;10921;53.614;9.882;2024-02-26T03:55:49;43.00;;;38.25;;
21519;SDS011;10921;53.614;9.882;2024-02-26T03:58:18;43.53;;;38.75;;
21519;SDS011;10921;53.614;9.882;2024-02-26T04:00:44;40.55;;;36.08;;
21519;SDS011;10921;53.614;9.882;2024-02-26T04:03:14;41.97;;;37.05;;
21519;SDS011;10921;53.614;9.882;2024-02-26T04:05:40;43.50;;;38.83;;
21519;SDS011;10921;53.614;9.882;2024-02-26T04:08:07;42.08;;;37.47;;
21519;SDS011;10921;53.614;9.882;2024-02-26T04:10:34;41.22;;;36.30;;
21519;SDS011;10921;53.614;9.882;2024-02-26T04:13:07;41.53;;;33.65;;
21519;SDS011;10921;53.614;9.882;2024-02-26T04:15:34;39.33;;;32.95;;
21519;SDS011;10921;53.614;9.882;2024-02-26T04:18:00;41.03;;;32.92;;
21519;SDS011;10921;53.614;9.882;2024-02-26T04:20:29;38.85;;;30.92;;
21519;SDS011;10921;53.614;9.882;2024-02-26T04:22:55;36.95;;;30.08;;
21519;SDS011;10921;53.614;9.882;2024-02-26T04:25:22;42.97;;;32.20;;
21519;SDS011;10921;53.614;9.882;2024-02-26T04:27:48;39.78;;;30.83;;
21519;SDS011;10921;53.614;9.882;2024-02-26T04:30:15;38.90;;;30.48;;
21519;SDS011;10921;53.614;9.882;2024-02-26T04:32:43;34.58;;;28.98;;
21519;SDS011;10921;53.614;9.882;2024-02-26T04:35:09;38.90;;;30.85;;
21519;SDS011;10921;53.614;9.882;2024-02-26T04:37:36;38.30;;;28.67;;
21519;SDS011;10921;53.614;9.882;2024-02-26T04:40:03;36.00;;;29.13;;
21519;SDS011;10921;53.614;9.882;2024-02-26T04:42:30;37.65;;;29.70;;
21519;SDS011;10921;53.614;9.882;2024-02-26T04:44:57;44.10;;;29.88;;
21519;SDS011;10921;53.614;9.882;2024-02-26T04:47:24;38.00;;;29.65;;
21519;SDS011;10921;53.614;9.882;2024-02-26T04:49:50;40.35;;;27.08;;
21519;SDS011;10921;53.614;9.882;2024-02-26T04:52:18;38.28;;;30.02;;
21519;SDS011;10921;53.614;9.882;2024-02-26T04:54:45;39.33;;;29.30;;
21519;SDS011;10921;53.614;9.882;2024-02-26T04:57:11;39.13;;;29.33;;
21519;SDS011;10921;53.614;9.882;2024-02-26T04:59:38;40.08;;;29.48;;
21519;SDS011;10921;53.614;9.882;2024-02-26T05:02:04;42.38;;;30.10;;
21519;SDS011;10921;53.614;9.882;2024-02-26T05:04:31;41.45;;;30.00;;
21519;SDS011;10921;53.614;9.882;2024-02-26T05:06:57;43.65;;;31.05;;
21519;SDS011;10921;53.614;9.882;2024-02-26T05:09:24;38.30;;;29.23;;
21519;SDS011;10921;53.614;9.882;2024-02-26T05:11:51;37.92;;;30.02;;
21519;SDS011;10921;53.614;9.882;2024-02-26T05:14:17;36.90;;;28.33;;
21519;SDS011;10921;53.614;9.882;2024-02-26T05:16:44;42.00;;;28.83;;
21519;SDS011;10921;53.614;9.882;2024-02-26T05:19:11;40.65;;;30.35;;
21519;SDS011;10921;53.614;9.882;2024-02-26T05:21:37;39.33;;;29.95;;
21519;SDS011;10921;53.614;9.882;2024-02-26T05:24:04;42.53;;;29.88;;
21519;SDS011;10921;53.614;9.882;2024-02-26T05:26:30;39.95;;;29.63;;
21519;SDS011;10921;53.614;9.882;2024-02-26T05:28:57;37.05;;;29.27;;
21519;SDS011;10921;53.614;9.882;2024-02-26T05:31:26;40.03;;;29.58;;
21519;SDS011;10921;53.614;9.882;2024-02-26T05:33:53;43.25;;;31.20;;
21519;SDS011;10921;53.614;9.882;2024-02-26T05:36:21;43.22;;;31.02;;
21519;SDS011;10921;53.614;9.882;2024-02-26T05:38:51;43.10;;;29.63;;
21519;SDS011;10921;53.614;9.882;2024-02-26T05:41:18;40.90;;;31.45;;
21519;SDS011;10921;53.614;9.882;2024-02-26T05:43:49;46.20;;;30.83;;
21519;SDS011;10921;53.614;9.882;2024-02-26T05:46:16;39.00;;;30.35;;
21519;SDS011;10921;53.614;9.882;2024-02-26T05:48:44;45.00;;;30.90;;
21519;SDS011;10921;53.614;9.882;2024-02-26T05:51:13;41.53;;;30.85;;
21519;SDS011;10921;53.614;9.882;2024-02-26T05:53:40;44.08;;;31.85;;
21519;SDS011;10921;53.614;9.882;2024-02-26T05:56:07;45.38;;;33.78;;
21519;SDS011;10921;53.614;9.882;2024-02-26T05:58:34;56.58;;;34.67;;
21519;SDS011;10921;53.614;9.882;2024-02-26T06:01:01;79.47;;;36.45;;
21519;SDS011;10921;53.614;9.882;2024-02-26T06:03:27;65.30;;;32.22;;
21519;SDS011;10921;53.614;9.882;2024-02-26T06:05:54;81.20;;;34.47;;
21519;SDS011;10921;53.614;9.882;2024-02-26T06:08:21;66.20;;;32.85;;
21519;SDS011;10921;53.614;9.882;2024-02-26T06:10:49;91.82;;;33.58;;
21519;SDS011;10921;53.614;9.882;2024-02-26T06:13:16;81.05;;;31.55;;
21519;SDS011;10921;53.614;9.882;2024-02-26T06:15:42;60.92;;;30.63;;
21519;SDS011;10921;53.614;9.882;2024-02-26T06:18:09;59.22;;;30.52;;
21519;SDS011;10921;53.614;9.882;2024-02-26T06:20:36;104.90;;;33.47;;
21519;SDS011;10921;53.614;9.882;2024-02-26T06:23:02;118.13;;;36.22;;
21519;SDS011;10921;53.614;9.882;2024-02-26T06:25:29;145.07;;;36.85;;
21519;SDS011;10921;53.614;9.882;2024-02-26T06:27:55;158.90;;;36.78;;
21519;SDS011;10921;53.614;9.882;2024-02-26T06:30:22;100.63;;;33.72;;
21519;SDS011;10921;53.614;9.882;2024-02-26T06:32:48;91.85;;;34.42;;
21519;SDS011;10921;53.614;9.882;2024-02-26T06:35:15;106.85;;;37.78;;
21519;SDS011;10921;53.614;9.882;2024-02-26T06:37:42;97.45;;;36.55;;
21519;SDS011;10921;53.614;9.882;2024-02-26T06:40:08;93.78;;;36.03;;
21519;SDS011;10921;53.614;9.882;2024-02-26T06:42:35;72.47;;;35.75;;
21519;SDS011;10921;53.614;9.882;2024-02-26T06:45:02;89.18;;;39.60;;
21519;SDS011;10921;53.614;9.882;2024-02-26T06:47:30;114.57;;;39.92;;
21519;SDS011;10921;53.614;9.882;2024-02-26T06:49:57;91.60;;;38.60;;
21519;SDS011;10921;53.614;9.882;2024-02-26T06:52:24;80.72;;;39.75;;
21519;SDS011;10921;53.614;9.882;2024-02-26T06:54:54;105.37;;;42.07;;
21519;SDS011;10921;53.614;9.882;2024-02-26T06:57:20;56.28;;;39.25;;
21519;SDS011;10921;53.614;9.882;2024-02-26T06:59:47;111.32;;;45.45;;
21519;SDS011;10921;53.614;9.882;2024-02-26T07:02:14;90.05;;;44.28;;
21519;SDS011;10921;53.614;9.882;2024-02-26T07:04:40;93.35;;;45.75;;
21519;SDS011;10921;53.614;9.882;2024-02-26T07:07:07;83.97;;;48.15;;
21519;SDS011;10921;53.614;9.882;2024-02-26T07:09:34;99.35;;;50.35;;
21519;SDS011;10921;53.614;9.882;2024-02-26T07:12:01;89.07;;;49.40;;
21519;SDS011;10921;53.614;9.882;2024-02-26T07:14:28;79.43;;;48.38;;
21519;SDS011;10921;53.614;9.882;2024-02-26T07:16:55;97.45;;;50.80;;
21519;SDS011;10921;53.614;9.882;2024-02-26T07:19:21;94.63;;;50.25;;
21519;SDS011;10921;53.614;9.882;2024-02-26T07:21:48;76.25;;;49.80;;
21519;SDS011;10921;53.614;9.882;2024-02-26T07:24:14;71.22;;;49.70;;
21519;SDS011;10921;53.614;9.882;2024-02-26T07:26:41;75.10;;;51.28;;
21519;SDS011;10921;53.614;9.882;2024-02-26T07:29:07;82.05;;;50.58;;
21519;SDS011;10921;53.614;9.882;2024-02-26T07:31:34;89.22;;;49.70;;
21519;SDS011;10921;53.614;9.882;2024-02-26T07:34:00;103.10;;;51.78;;
21519;SDS011;10921;53.614;9.882;2024-02-26T07:36:27;83.28;;;52.25;;
21519;SDS011;10921;53.614;9.882;2024-02-26T07:38:54;88.32;;;52.45;;
21519;SDS011;10921;53.614;9.882;2024-02-26T07:41:20;96.40;;;53.00;;
21519;SDS011;10921;53.614;9.882;2024-02-26T07:43:47;99.22;;;52.92;;
21519;SDS011;10921;53.614;9.882;2024-02-26T07:46:14;85.45;;;52.22;;
21519;SDS011;10921;53.614;9.882;2024-02-26T07:48:41;103.03;;;52.70;;
21519;SDS011;10921;53.614;9.882;2024-02-26T07:51:08;100.93;;;55.67;;
21519;SDS011;10921;53.614;9.882;2024-02-26T07:53:35;125.50;;;55.08;;
21519;SDS011;10921;53.614;9.882;2024-02-26T07:56:01;109.28;;;55.80;;
21519;SDS011;10921;53.614;9.882;2024-02-26T07:58:29;132.80;;;54.53;;
21519;SDS011;10921;53.614;9.882;2024-02-26T08:00:56;143.90;;;54.92;;
21519;SDS011;10921;53.614;9.882;2024-02-26T08:03:22;129.98;;;56.40;;
21519;SDS011;10921;53.614;9.882;2024-02-26T08:05:50;188.15;;;58.35;;
21519;SDS011;10921;53.614;9.882;2024-02-26T08:08:17;129.98;;;56.63;;
21519;SDS011;10921;53.614;9.882;2024-02-26T08:10:44;110.20;;;54.72;;
21519;SDS011;10921;53.614;9.882;2024-02-26T08:13:11;116.25;;;55.83;;
21519;SDS011;10921;53.614;9.882;2024-02-26T08:15:38;152.65;;;60.17;;
21519;SDS011;10921;53.614;9.882;2024-02-26T08:18:07;148.77;;;57.88;;
21519;SDS011;10921;53.614;9.882;2024-02-26T08:20:37;112.07;;;58.65;;
21519;SDS011;10921;53.614;9.882;2024-02-26T08:23:04;108.18;;;58.28;;
21519;SDS011;10921;53.614;9.882;2024-02-26T08:25:30;106.07;;;58.92;;
21519;SDS011;10921;53.614;9.882;2024-02-26T08:27:57;101.47;;;59.00;;
21519;SDS011;10921;53.614;9.882;2024-02-26T08:30:24;90.20;;;57.83;;
21519;SDS011;10921;53.614;9.882;2024-02-26T08:32:50;103.45;;;58.85;;
21519;SDS011;10921;53.614;9.882;2024-02-26T08:35:18;88.00;;;54.50;;
21519;SDS011;10921;53.614;9.882;2024-02-26T08:37:46;95.45;;;57.60;;
21519;SDS011;10921;53.614;9.882;2024-02-26T08:40:13;102.65;;;57.63;;
21519;SDS011;10921;53.614;9.882;2024-02-26T08:42:44;101.95;;;57.63;;
21519;SDS011;10921;53.614;9.882;2024-02-26T08:45:11;93.30;;;58.40;;
21519;SDS011;10921;53.614;9.882;2024-02-26T08:47:39;85.78;;;54.85;;
21519;SDS011;10921;53.614;9.882;2024-02-26T08:50:05;93.25;;;57.42;;
21519;SDS011;10921;53.614;9.882;2024-02-26T08:52:33;85.68;;;55.25;;
21519;SDS011;10921;53.614;9.882;2024-02-26T08:54:59;86.43;;;55.33;;
21519;SDS011;10921;53.614;9.882;2024-02-26T08:57:26;85.85;;;55.95;;
21519;SDS011;10921;53.614;9.882;2024-02-26T08:59:54;86.97;;;53.70;;
21519;SDS011;10921;53.614;9.882;2024-02-26T09:02:20;87.18;;;56.20;;
21519;SDS011;10921;53.614;9.882;2024-02-26T09:04:47;82.20;;;52.63;;
21519;SDS011;10921;53.614;9.882;2024-02-26T09:07:14;87.30;;;55.13;;
21519;SDS011;10921;53.614;9.882;2024-02-26T09:09:41;87.13;;;54.30;;
21519;SDS011;10921;53.614;9.882;2024-02-26T09:12:08;83.15;;;53.67;;
21519;SDS011;10921;53.614;9.882;2024-02-26T09:14:35;86.50;;;56.22;;
21519;SDS011;10921;53.614;9.882;2024-02-26T09:17:02;85.82;;;55.35;;
21519;SDS011;10921;53.614;9.882;2024-02-26T09:19:29;87.03;;;53.38;;
21519;SDS011;10921;53.614;9.882;2024-02-26T09:21:55;81.63;;;54.88;;
21519;SDS011;10921;53.614;9.882;2024-02-26T09:24:24;79.68;;;54.42;;
21519;SDS011;10921;53.614;9.882;2024-02-26T09:26:51;81.47;;;53.40;;
21519;SDS011;10921;53.614;9.882;2024-02-26T09:29:18;79.35;;;53.40;;
21519;SDS011;10921;53.614;9.882;2024-02-26T09:31:44;81.10;;;53.20;;
21519;SDS011;10921;53.614;9.882;2024-02-26T09:34:13;78.03;;;53.53;;
21519;SDS011;10921;53.614;9.882;2024-02-26T09:36:40;79.75;;;54.92;;
21519;SDS011;10921;53.614;9.882;2024-02-26T09:39:07;75.35;;;53.42;;
21519;SDS011;10921;53.614;9.882;2024-02-26T09:41:37;76.15;;;53.13;;
21519;SDS011;10921;53.614;9.882;2024-02-26T09:44:05;77.65;;;53.60;;
21519;SDS011;10921;53.614;9.882;2024-02-26T09:46:32;78.55;;;53.70;;
21519;SDS011;10921;53.614;9.882;2024-02-26T09:48:59;74.03;;;52.85;;
21519;SDS011;10921;53.614;9.882;2024-02-26T09:51:27;77.45;;;53.45;;
21519;SDS011;10921;53.614;9.882;2024-02-26T09:53:53;77.10;;;53.20;;
21519;SDS011;10921;53.614;9.882;2024-02-26T09:56:22;79.25;;;53.92;;
21519;SDS011;10921;53.614;9.882;2024-02-26T09:58:49;73.07;;;53.05;;
21519;SDS011;10921;53.614;9.882;2024-02-26T10:01:20;73.22;;;52.88;;
21519;SDS011;10921;53.614;9.882;2024-02-26T10:03:52;72.40;;;51.45;;
21519;SDS011;10921;53.614;9.882;2024-02-26T10:06:26;70.70;;;50.65;;
21519;SDS011;10921;53.614;9.882;2024-02-26T10:08:54;69.63;;;50.53;;
21519;SDS011;10921;53.614;9.882;2024-02-26T10:11:22;76.63;;;51.60;;
21519;SDS011;10921;53.614;9.882;2024-02-26T10:13:49;70.47;;;49.28;;
21519;SDS011;10921;53.614;9.882;2024-02-26T10:16:16;72.00;;;49.45;;
21519;SDS011;10921;53.614;9.882;2024-02-26T10:18:49;71.10;;;51.05;;
21519;SDS011;10921;53.614;9.882;2024-02-26T10:21:25;68.60;;;49.58;;
21519;SDS011;10921;53.614;9.882;2024-02-26T10:23:52;71.53;;;50.75;;
21519;SDS011;10921;53.614;9.882;2024-02-26T10:26:19;70.97;;;50.20;;
21519;SDS011;10921;53.614;9.882;2024-02-26T10:28:46;71.28;;;49.17;;
21519;SDS011;10921;53.614;9.882;2024-02-26T10:31:17;66.65;;;47.92;;
21519;SDS011;10921;53.614;9.882;2024-02-26T10:33:45;69.40;;;46.45;;
21519;SDS011;10921;53.614;9.882;2024-02-26T10:36:12;63.75;;;45.10;;
21519;SDS011;10921;53.614;9.882;2024-02-26T10:38:38;66.32;;;46.05;;
21519;SDS011;10921;53.614;9.882;2024-02-26T10:41:09;69.38;;;47.92;;
21519;SDS011;10921;53.614;9.882;2024-02-26T10:43:39;64.88;;;46.88;;
21519;SDS011;10921;53.614;9.882;2024-02-26T10:46:09;63.05;;;44.33;;
21519;SDS011;10921;53.614;9.882;2024-02-26T10:48:36;59.35;;;41.92;;
21519;SDS011;10921;53.614;9.882;2024-02-26T10:51:03;54.17;;;40.50;;
21519;SDS011;10921;53.614;9.882;2024-02-26T10:53:30;65.47;;;43.85;;
21519;SDS011;10921;53.614;9.882;2024-02-26T10:56:03;53.17;;;38.00;;
21519;SDS011;10921;53.614;9.882;2024-02-26T10:58:33;52.47;;;35.83;;
21519;SDS011;10921;53.614;9.882;2024-02-26T11:01:01;56.30;;;38.28;;
21519;SDS011;10921;53.614;9.882;2024-02-26T11:03:29;51.78;;;36.03;;
21519;SDS011;10921;53.614;9.882;2024-02-26T11:05:58;51.27;;;36.20;;
21519;SDS011;10921;53.614;9.882;2024-02-26T11:08:27;51.03;;;36.65;;
21519;SDS011;10921;53.614;9.882;2024-02-26T11:10:55;57.20;;;38.53;;
21519;SDS011;10921;53.614;9.882;2024-02-26T11:13:23;50.38;;;36.13;;
21519;SDS011;10921;53.614;9.882;2024-02-26T11:15:53;53.50;;;37.97;;
21519;SDS011;10921;53.614;9.882;2024-02-26T11:18:23;48.17;;;37.42;;
21519;SDS011;10921;53.614;9.882;2024-02-26T11:20:51;52.03;;;37.70;;
21519;SDS011;10921;53.614;9.882;2024-02-26T11:23:21;41.90;;;35.03;;
21519;SDS011;10921;53.614;9.882;2024-02-26T11:25:48;43.58;;;35.00;;
21519;SDS011;10921;53.614;9.882;2024-02-26T11:28:17;48.67;;;36.33;;
21519;SDS011;10921;53.614;9.882;2024-02-26T11:30:46;45.35;;;34.08;;
21519;SDS011;10921;53.614;9.882;2024-02-26T11:33:14;39.30;;;32.80;;
21519;SDS011;10921;53.614;9.882;2024-02-26T11:35:42;40.75;;;34.95;;
21519;SDS011;10921;53.614;9.882;2024-02-26T11:38:12;40.72;;;34.70;;
21519;SDS011;10921;53.614;9.882;2024-02-26T11:40:45;37.78;;;33.35;;
21519;SDS011;10921;53.614;9.882;2024-02-26T11:43:13;38.22;;;34.03;;
21519;SDS011;10921;53.614;9.882;2024-02-26T11:48:12;31.92;;;28.52;;
21519;SDS011;10921;53.614;9.882;2024-02-26T11:50:41;35.95;;;30.83;;
21519;SDS011;10921;53.614;9.882;2024-02-26T11:58:39;33.35;;;29.45;;
21519;SDS011;10921;53.614;9.882;2024-02-26T12:04:02;34.83;;;29.55;;
21519;SDS011;10921;53.614;9.882;2024-02-26T12:06:33;32.85;;;28.70;;
21519;SDS011;10921;53.614;9.882;2024-02-26T12:09:07;34.83;;;28.90;;
21519;SDS011;10921;53.614;9.882;2024-02-26T12:11:38;33.17;;;27.73;;
21519;SDS011;10921;53.614;9.882;2024-02-26T12:14:07;33.25;;;28.38;;
21519;SDS011;10921;53.614;9.882;2024-02-26T12:16:35;35.30;;;30.55;;
21519;SDS011;10921;53.614;9.882;2024-02-26T12:19:04;38.53;;;30.40;;
21519;SDS011;10921;53.614;9.882;2024-02-26T12:21:33;36.70;;;29.67;;
21519;SDS011;10921;53.614;9.882;2024-02-26T12:24:09;40.45;;;29.90;;
21519;SDS011;10921;53.614;9.882;2024-02-26T12:26:40;35.13;;;30.13;;
21519;SDS011;10921;53.614;9.882;2024-02-26T12:29:07;38.97;;;31.55;;
21519;SDS011;10921;53.614;9.882;2024-02-26T12:31:34;38.60;;;31.60;;
21519;SDS011;10921;53.614;9.882;2024-02-26T12:34:03;38.33;;;31.02;;
21519;SDS011;10921;53.614;9.882;2024-02-26T12:36:31;40.47;;;33.28;;
21519;SDS011;10921;53.614;9.882;2024-02-26T12:38:57;37.50;;;31.95;;
21519;SDS011;10921;53.614;9.882;2024-02-26T12:41:24;36.08;;;29.73;;
21519;SDS011;10921;53.614;9.882;2024-02-26T12:43:51;44.28;;;30.73;;
21519;SDS011;10921;53.614;9.882;2024-02-26T12:46:20;33.80;;;29.55;;
21519;SDS011;10921;53.614;9.882;2024-02-26T12:48:47;36.22;;;30.95;;
21519;SDS011;10921;53.614;9.882;2024-02-26T12:51:14;36.20;;;30.20;;
21519;SDS011;10921;53.614;9.882;2024-02-26T12:53:43;32.47;;;27.52;;
21519;SDS011;10921;53.614;9.882;2024-02-26T12:56:11;33.30;;;28.15;;
21519;SDS011;10921;53.614;9.882;2024-02-26T12:58:40;35.30;;;28.43;;
21519;SDS011;10921;53.614;9.882;2024-02-26T13:01:07;32.33;;;27.90;;
21519;SDS011;10921;53.614;9.882;2024-02-26T13:03:41;34.45;;;28.55;;
21519;SDS011;10921;53.614;9.882;2024-02-26T13:06:10;33.92;;;29.13;;
21519;SDS011;10921;53.614;9.882;2024-02-26T13:08:37;33.80;;;28.42;;
21519;SDS011;10921;53.614;9.882;2024-02-26T13:11:04;37.35;;;30.67;;
21519;SDS011;10921;53.614;9.882;2024-02-26T13:13:31;34.47;;;28.20;;
21519;SDS011;10921;53.614;9.882;2024-02-26T13:16:04;36.20;;;29.17;;
21519;SDS011;10921;53.614;9.882;2024-02-26T13:18:33;33.83;;;28.25;;
21519;SDS011;10921;53.614;9.882;2024-02-26T13:24:01;35.22;;;29.48;;
21519;SDS011;10921;53.614;9.882;2024-02-26T13:26:28;39.70;;;31.33;;
21519;SDS011;10921;53.614;9.882;2024-02-26T13:29:01;35.35;;;29.55;;
21519;SDS011;10921;53.614;9.882;2024-02-26T13:31:31;37.97;;;30.42;;
21519;SDS011;10921;53.614;9.882;2024-02-26T13:33:58;39.58;;;30.10;;
21519;SDS011;10921;53.614;9.882;2024-02-26T13:36:25;35.00;;;28.75;;
21519;SDS011;10921;53.614;9.882;2024-02-26T13:38:52;38.10;;;30.85;;
21519;SDS011;10921;53.614;9.882;2024-02-26T13:41:22;37.40;;;30.45;;
21519;SDS011;10921;53.614;9.882;2024-02-26T13:43:50;37.95;;;30.42;;
21519;SDS011;10921;53.614;9.882;2024-02-26T13:46:18;34.83;;;29.17;;
21519;SDS011;10921;53.614;9.882;2024-02-26T13:48:44;38.00;;;30.38;;
21519;SDS011;10921;53.614;9.882;2024-02-26T13:51:11;36.08;;;30.45;;
21519;SDS011;10921;53.614;9.882;2024-02-26T13:53:37;38.78;;;32.00;;
21519;SDS011;10921;53.614;9.882;2024-02-26T13:56:04;40.40;;;32.10;;
21519;SDS011;10921;53.614;9.882;2024-02-26T13:58:32;39.47;;;31.83;;
21519;SDS011;10921;53.614;9.882;2024-02-26T14:00:58;36.45;;;30.83;;
21519;SDS011;10921;53.614;9.882;2024-02-26T14:03:26;37.75;;;31.52;;
21519;SDS011;10921;53.614;9.882;2024-02-26T14:05:53;43.20;;;33.25;;
21519;SDS011;10921;53.614;9.882;2024-02-26T14:08:19;40.75;;;32.35;;
21519;SDS011;10921;53.614;9.882;2024-02-26T14:10:47;38.13;;;31.58;;
21519;SDS011;10921;53.614;9.882;2024-02-26T14:13:13;39.80;;;31.05;;
21519;SDS011;10921;53.614;9.882;2024-02-26T14:15:40;39.65;;;31.38;;
21519;SDS011;10921;53.614;9.882;2024-02-26T14:18:06;37.53;;;30.73;;
21519;SDS011;10921;53.614;9.882;2024-02-26T14:20:34;41.25;;;31.50;;
21519;SDS011;10921;53.614;9.882;2024-02-26T14:23:01;36.67;;;29.48;;
21519;SDS011;10921;53.614;9.882;2024-02-26T14:25:27;35.28;;;30.67;;
21519;SDS011;10921;53.614;9.882;2024-02-26T14:27:56;38.10;;;30.13;;
21519;SDS011;10921;53.614;9.882;2024-02-26T14:30:25;35.80;;;30.90;;
21519;SDS011;10921;53.614;9.882;2024-02-26T14:32:52;39.88;;;32.28;;
21519;SDS011;10921;53.614;9.882;2024-02-26T14:35:19;37.58;;;30.83;;
21519;SDS011;10921;53.614;9.882;2024-02-26T14:37:46;38.60;;;32.13;;